Time;durP1;ratioP1;P1;durP2;ratioP2;P2;SDS_P1;SDS_P2;PMS_P1;PMS_P2;Temp;Humidity;BMP_temperature;BMP_pressure;BME280_temperature;BME280_humidity;BME280_pressure;Samples;Min_cycle;Max_cycle;Signal;HPM_P1;HPM_P2
2024/03/25 00:01:18;;;;;;;3.90;1.80;;;;;;;8.39;66.89;99229.81;5109772;28;20046;-58
2024/03/25 00:03:47;;;;;;;4.47;1.67;;;;;;;8.46;66.69;99230.25;5110073;28;20071;-54
2024/03/25 00:06:13;;;;;;;3.00;1.45;;;;;;;8.35;66.37;99228.31;5110087;28;20126;-55
2024/03/25 00:08:40;;;;;;;4.55;1.90;;;;;;;8.39;66.77;99229.81;5109982;28;20412;-53
2024/03/25 00:11:07;;;;;;;2.83;1.50;;;;;;;8.28;66.49;99232.28;5109899;28;20051;-55
2024/03/25 00:13:34;;;;;;;4.90;1.80;;;;;;;8.29;66.39;99223.38;5109797;28;20043;-52
2024/03/25 00:16:01;;;;;;;4.40;1.88;;;;;;;8.40;66.19;99231.53;5109325;28;20199;-53
2024/03/25 00:18:28;;;;;;;3.85;1.65;;;;;;;8.35;65.99;99228.31;5109971;28;20377;-54
2024/03/25 00:20:59;;;;;;;4.28;1.60;;;;;;;8.32;66.48;99217.88;5110065;28;20051;-50
2024/03/25 00:23:26;;;;;;;3.67;1.80;;;;;;;8.15;66.82;99220.78;5109680;28;20043;-54
2024/03/25 00:25:52;;;;;;;3.88;1.77;;;;;;;8.22;66.85;99222.09;5109794;28;20044;-50
2024/03/25 00:28:19;;;;;;;3.75;1.90;;;;;;;8.27;66.83;99225.28;5109896;28;20106;-53
2024/03/25 00:30:46;;;;;;;2.95;1.70;;;;;;;8.12;67.09;99221.88;5110001;28;20046;-56
2024/03/25 00:33:13;;;;;;;3.47;1.92;;;;;;;8.19;67.26;99224.94;5109794;28;20044;-54
2024/03/25 00:35:39;;;;;;;4.22;1.80;;;;;;;8.11;67.11;99219.31;5109785;28;20127;-53
2024/03/25 00:38:08;;;;;;;3.28;1.67;;;;;;;8.22;67.09;99211.47;5109582;28;20116;-52
2024/03/25 00:40:34;;;;;;;3.20;1.77;;;;;;;8.29;66.98;99223.38;5109439;28;20499;-55
2024/03/25 00:43:02;;;;;;;3.72;1.80;;;;;;;8.25;66.93;99213.91;5109531;28;20050;-55
2024/03/25 00:45:30;;;;;;;2.90;1.80;;;;;;;8.26;66.99;99212.97;5109553;28;20126;-54
2024/03/25 00:47:59;;;;;;;2.90;1.58;;;;;;;8.29;67.25;99212.75;5109737;28;20055;-52
2024/03/25 00:50:26;;;;;;;4.03;1.70;;;;;;;8.28;67.29;99211.03;5109713;28;20075;-54
2024/03/25 00:52:56;;;;;;;4.68;2.10;;;;;;;8.22;67.21;99211.47;5109557;28;20056;-52
2024/03/25 00:55:24;;;;;;;5.05;1.90;;;;;;;8.31;67.10;99210.84;5109396;28;20480;-55
2024/03/25 00:57:52;;;;;;;3.83;1.90;;;;;;;8.36;67.39;99211.41;5109185;28;20452;-55
2024/03/25 01:00:19;;;;;;;4.82;1.80;;;;;;;8.36;67.27;99218.53;5109543;28;20055;-55
2024/03/25 01:02:46;;;;;;;3.67;1.83;;;;;;;8.42;66.90;99216.31;5109390;28;20040;-52
2024/03/25 01:05:13;;;;;;;3.78;2.00;;;;;;;8.37;66.84;99221.09;5109701;28;20081;-53
2024/03/25 01:07:40;;;;;;;3.80;1.90;;;;;;;8.32;66.65;99217.88;5109364;28;20048;-56
2024/03/25 01:10:07;;;;;;;4.38;2.00;;;;;;;8.24;66.41;99214.88;5109497;28;20388;-53
2024/03/25 01:12:36;;;;;;;4.47;1.98;;;;;;;8.24;66.65;99213.06;5112929;28;20067;-56
2024/03/25 01:15:07;;;;;;;3.63;2.00;;;;;;;8.17;66.54;99213.56;5112743;28;20055;-56
2024/03/25 01:17:34;;;;;;;3.30;1.85;;;;;;;8.17;66.48;99211.78;5113027;28;20048;-55
2024/03/25 01:20:01;;;;;;;4.22;1.80;;;;;;;8.19;66.23;99212.50;5112799;28;20496;-55
2024/03/25 01:22:29;;;;;;;3.83;1.88;;;;;;;8.23;65.97;99218.50;5113494;28;20043;-53
2024/03/25 01:24:55;;;;;;;3.10;1.80;;;;;;;8.15;65.83;99221.66;5113327;28;20044;-53
2024/03/25 01:27:22;;;;;;;3.45;1.98;;;;;;;8.00;66.19;99227.97;5113160;28;20048;-54
2024/03/25 01:29:50;;;;;;;4.53;1.77;;;;;;;7.85;66.89;99219.22;5113313;28;20048;-55
2024/03/25 01:32:17;;;;;;;3.85;2.10;;;;;;;7.86;67.51;99220.06;5112781;28;20591;-56
2024/03/25 01:34:44;;;;;;;3.22;1.70;;;;;;;7.85;67.90;99213.06;5112987;28;20060;-53
2024/03/25 01:37:12;;;;;;;5.95;2.40;;;;;;;7.94;67.61;99208.00;5112720;28;20054;-54
2024/03/25 01:39:38;;;;;;;4.97;1.90;;;;;;;7.89;67.35;99209.22;5112748;28;20043;-52
2024/03/25 01:42:06;;;;;;;3.83;1.98;;;;;;;7.89;67.24;99204.78;5112846;28;20052;-53
2024/03/25 01:44:32;;;;;;;3.13;1.80;;;;;;;7.92;67.05;99209.91;5112634;28;20051;-51
2024/03/25 01:47:01;;;;;;;4.15;1.80;;;;;;;7.99;66.79;99207.66;5112509;28;20044;-54
2024/03/25 01:49:32;;;;;;;4.05;2.05;;;;;;;7.89;66.74;99199.47;5112317;28;20044;-56
2024/03/25 01:51:59;;;;;;;4.97;1.88;;;;;;;7.91;66.98;99200.25;5112700;28;20047;-55
2024/03/25 01:54:27;;;;;;;3.85;1.75;;;;;;;7.73;67.32;99191.66;5113003;28;20051;-54
2024/03/25 01:56:55;;;;;;;3.35;2.00;;;;;;;7.84;67.35;99201.59;5112984;28;20101;-57
2024/03/25 01:59:23;;;;;;;4.80;1.80;;;;;;;7.70;67.91;99197.16;5112536;28;20044;-53
2024/03/25 02:01:51;;;;;;;4.30;2.13;;;;;;;7.64;67.94;99199.38;5112434;28;20043;-54
2024/03/25 02:04:19;;;;;;;4.25;2.00;;;;;;;7.70;68.85;99204.28;5112253;28;20039;-54
2024/03/25 02:06:46;;;;;;;5.80;2.38;;;;;;;7.44;68.94;99196.22;5111986;28;20103;-57
2024/03/25 02:09:13;;;;;;;3.97;2.10;;;;;;;7.59;69.41;99204.13;5112211;28;20043;-54
2024/03/25 02:11:42;;;;;;;3.92;2.00;;;;;;;7.51;69.64;99211.72;5112041;28;20051;-54
2024/03/25 02:14:09;;;;;;;3.97;2.00;;;;;;;7.63;69.03;99209.16;5113009;28;20044;-55
2024/03/25 02:16:36;;;;;;;5.15;2.35;;;;;;;7.66;69.05;99203.63;5112991;28;20048;-55
2024/03/25 02:19:03;;;;;;;5.15;2.53;;;;;;;7.67;69.38;99207.13;5120520;27;20044;-55
2024/03/25 02:21:31;;;;;;;4.35;2.08;;;;;;;7.62;68.61;99207.41;5133016;27;20050;-55
2024/03/25 02:24:06;;;;;;;3.28;1.92;;;;;;;7.60;69.13;99205.81;5132449;27;20043;-54
2024/03/25 02:26:35;;;;;;;4.82;2.13;;;;;;;7.71;69.14;99205.97;5133099;27;20403;-54
2024/03/25 02:29:02;;;;;;;6.15;2.10;;;;;;;7.60;68.99;99208.47;5132899;27;20058;-52
2024/03/25 02:31:29;;;;;;;4.05;2.10;;;;;;;7.76;68.44;99201.22;5132641;27;20043;-56
2024/03/25 02:33:58;;;;;;;3.35;1.90;;;;;;;7.69;68.66;99202.56;5132127;27;20492;-52
2024/03/25 02:36:26;;;;;;;2.60;1.50;;;;;;;7.79;68.12;99203.66;5132356;27;20420;-53
2024/03/25 02:38:52;;;;;;;3.00;1.48;;;;;;;7.75;67.47;99200.38;5132218;27;20043;-54
2024/03/25 02:41:22;;;;;;;3.30;1.73;;;;;;;7.78;67.68;99201.97;5132146;27;20403;-51
2024/03/25 02:43:50;;;;;;;4.68;2.00;;;;;;;7.84;67.14;99203.38;5132147;27;20047;-52
2024/03/25 02:46:17;;;;;;;3.60;1.60;;;;;;;7.88;67.14;99205.72;5131992;27;20054;-52
2024/03/25 02:48:46;;;;;;;4.65;1.90;;;;;;;7.90;66.81;99203.81;5131972;27;20050;-53
2024/03/25 02:51:13;;;;;;;4.82;1.80;;;;;;;7.75;67.58;99197.72;5132490;27;20062;-54
2024/03/25 02:53:41;;;;;;;3.10;1.60;;;;;;;8.01;67.11;99192.50;5132601;27;20047;-55
2024/03/25 02:56:08;;;;;;;4.10;1.55;;;;;;;7.98;66.74;99200.66;5132427;27;20051;-57
2024/03/25 02:58:34;;;;;;;3.28;1.67;;;;;;;7.98;66.66;99198.84;5132422;27;20039;-54
2024/03/25 03:01:03;;;;;;;3.50;1.70;;;;;;;8.10;66.57;99206.97;5132141;27;20126;-56
2024/03/25 03:03:29;;;;;;;2.75;1.63;;;;;;;8.07;66.54;99197.41;5132380;27;20459;-57
2024/03/25 03:05:57;;;;;;;2.92;1.50;;;;;;;8.08;66.69;99203.56;5132534;27;20092;-55
2024/03/25 03:08:23;;;;;;;2.97;1.60;;;;;;;8.06;66.61;99210.78;5132160;27;20066;-54
2024/03/25 03:10:51;;;;;;;3.67;1.88;;;;;;;7.89;67.34;99215.38;5132164;27;20039;-57
2024/03/25 03:13:18;;;;;;;2.65;1.55;;;;;;;8.00;67.03;99215.53;5132030;27;20047;-52
2024/03/25 03:15:45;;;;;;;2.58;1.50;;;;;;;8.12;67.02;99219.22;5131952;27;20055;-57
2024/03/25 03:18:13;;;;;;;2.75;1.65;;;;;;;8.25;66.63;99224.53;5131565;27;20043;-54
2024/03/25 03:20:43;;;;;;;3.30;1.80;;;;;;;8.25;66.68;99221.88;5131735;27;20039;-53
2024/03/25 03:23:09;;;;;;;3.17;1.80;;;;;;;8.31;66.68;99225.00;5132187;27;20054;-56
2024/03/25 03:25:37;;;;;;;3.83;1.70;;;;;;;8.35;66.42;99225.66;5131670;27;20039;-52
2024/03/25 03:28:03;;;;;;;2.60;1.40;;;;;;;8.36;66.05;99226.50;5131457;27;20125;-55
2024/03/25 03:30:31;;;;;;;3.78;1.67;;;;;;;8.28;66.00;99226.97;5131496;27;20051;-54
2024/03/25 03:33:00;;;;;;;2.47;1.50;;;;;;;8.39;65.31;99219.16;5131562;27;20054;-56
2024/03/25 03:35:29;;;;;;;3.33;1.63;;;;;;;8.41;65.59;99233.22;5132157;27;20058;-53
2024/03/25 03:37:55;;;;;;;2.95;1.70;;;;;;;8.50;65.59;99229.94;5133047;27;20099;-57
2024/03/25 03:40:23;;;;;;;3.53;1.35;;;;;;;8.50;65.36;99226.44;5131776;27;20082;-54
2024/03/25 03:42:49;;;;;;;2.63;1.60;;;;;;;8.55;65.35;99224.31;5133075;27;20066;-55
2024/03/25 03:45:16;;;;;;;4.05;1.70;;;;;;;8.44;65.56;99232.16;5133322;27;20090;-54
2024/03/25 03:47:43;;;;;;;3.08;1.50;;;;;;;8.55;65.24;99234.94;5131494;27;20504;-53
2024/03/25 03:50:11;;;;;;;3.38;1.50;;;;;;;8.54;65.42;99234.09;5130962;27;20047;-53
2024/03/25 03:52:38;;;;;;;2.97;1.60;;;;;;;8.67;65.30;99238.56;5130670;27;20131;-55
2024/03/25 03:55:06;;;;;;;2.72;1.45;;;;;;;8.72;65.26;99239.13;5130654;27;20092;-54
2024/03/25 03:57:33;;;;;;;2.17;1.42;;;;;;;8.72;64.73;99247.94;5130437;27;20069;-53
2024/03/25 04:00:00;;;;;;;3.70;1.70;;;;;;;8.76;65.16;99243.25;5113718;27;20072;-55
2024/03/25 04:02:28;;;;;;;4.30;1.52;;;;;;;8.69;65.28;99242.84;5130236;27;20461;-56
2024/03/25 04:04:55;;;;;;;2.47;1.55;;;;;;;8.64;65.65;99244.09;5130570;28;20043;-55
2024/03/25 04:07:26;;;;;;;2.25;1.38;;;;;;;8.64;65.33;99244.09;5130592;28;20047;-54
2024/03/25 04:09:55;;;;;;;4.28;1.42;;;;;;;8.71;65.05;99248.06;5130433;28;20047;-51
2024/03/25 04:12:21;;;;;;;2.28;1.40;;;;;;;8.72;65.00;99245.28;5130176;28;20090;-56
2024/03/25 04:14:54;;;;;;;4.35;1.58;;;;;;;8.67;65.04;99243.88;5130466;28;20059;-58
2024/03/25 04:17:21;;;;;;;3.15;1.30;;;;;;;8.71;64.86;99248.06;5130319;28;20096;-56
2024/03/25 04:19:48;;;;;;;2.67;1.30;;;;;;;8.75;64.73;99249.53;5130371;28;20130;-51
2024/03/25 04:22:14;;;;;;;2.40;1.40;;;;;;;8.77;64.99;99251.13;5130277;28;20127;-56
2024/03/25 04:24:42;;;;;;;2.75;1.30;;;;;;;8.77;64.92;99251.13;5130228;28;20566;-52
2024/03/25 04:27:09;;;;;;;2.92;1.40;;;;;;;8.76;64.81;99253.88;5130556;28;20049;-54
2024/03/25 04:29:37;;;;;;;3.85;1.50;;;;;;;8.72;64.75;99263.91;5130201;28;20472;-54
2024/03/25 04:32:03;;;;;;;2.92;1.15;;;;;;;8.75;64.64;99268.16;5130253;28;20039;-54
2024/03/25 04:34:31;;;;;;;3.33;1.17;;;;;;;8.79;64.42;99261.69;5130415;28;20043;-56
2024/03/25 04:36:57;;;;;;;4.60;1.30;;;;;;;8.74;65.07;99263.78;5130215;28;20047;-54
